Time;durP1;ratioP1;P1;durP2;ratioP2;P2;SDS_P1;SDS_P2;PMS_P1;PMS_P2;Temp;Humidity;BMP_temperature;BMP_pressure;BME280_temperature;BME280_humidity;BME280_pressure;Samples;Min_cycle;Max_cycle;Signal;HPM_P1;HPM_P2
2022/03/16 00:02:21;;;;;;;23.88;16.85;;;14.60;62.20;;;;;;5044557;28;20040;-70
2022/03/16 00:04:52;;;;;;;20.25;15.85;;;14.60;62.20;;;;;;5058777;28;20056;-71
2022/03/16 00:07:18;;;;;;;22.85;17.05;;;14.50;62.20;;;;;;5058604;28;20052;-71
2022/03/16 00:09:45;;;;;;;23.45;16.92;;;14.50;62.20;;;;;;5058355;28;20128;-70
2022/03/16 00:12:11;;;;;;;23.75;17.27;;;14.50;62.20;;;;;;5058578;28;20045;-71
2022/03/16 00:14:38;;;;;;;21.52;17.27;;;14.50;62.20;;;;;;5058201;28;20079;-71
2022/03/16 00:17:04;;;;;;;22.48;17.35;;;14.50;62.20;;;;;;5040603;28;20040;-70
2022/03/16 00:19:31;;;;;;;22.83;17.50;;;14.50;62.20;;;;;;5058445;28;20357;-71
2022/03/16 00:21:57;;;;;;;23.70;18.70;;;14.50;62.20;;;;;;5041030;28;20480;-70
2022/03/16 00:24:23;;;;;;;25.05;18.48;;;14.50;62.10;;;;;;5041081;28;20356;-73
2022/03/16 00:26:49;;;;;;;25.40;18.05;;;14.50;62.10;;;;;;5040653;28;20055;-71
2022/03/16 00:29:15;;;;;;;23.67;17.83;;;14.50;62.10;;;;;;5057921;28;20040;-70
2022/03/16 00:31:40;;;;;;;21.58;17.33;;;14.50;62.00;;;;;;5057327;28;20036;-70
2022/03/16 00:34:06;;;;;;;28.05;18.90;;;14.50;62.10;;;;;;5057734;28;20056;-71
2022/03/16 00:36:32;;;;;;;23.30;17.88;;;14.50;62.10;;;;;;5058251;28;20153;-72
2022/03/16 00:38:57;;;;;;;23.20;17.55;;;14.50;62.10;;;;;;5040382;28;20053;-73
2022/03/16 00:41:23;;;;;;;24.67;18.40;;;14.50;62.10;;;;;;5056229;28;20065;-71
2022/03/16 00:43:49;;;;;;;24.58;18.15;;;14.50;62.00;;;;;;5040223;28;20063;-71
2022/03/16 00:46:15;;;;;;;26.25;18.70;;;14.50;62.10;;;;;;5057892;28;20387;-71
2022/03/16 00:48:40;;;;;;;23.73;17.77;;;14.50;62.10;;;;;;5057580;28;20080;-72
2022/03/16 00:51:07;;;;;;;24.55;18.40;;;14.50;62.00;;;;;;5057987;28;20061;-71
2022/03/16 00:53:34;;;;;;;23.40;17.70;;;14.40;61.90;;;;;;5057672;28;20416;-69
2022/03/16 00:56:01;;;;;;;27.27;18.75;;;14.40;62.00;;;;;;5057829;28;20107;-70
2022/03/16 00:58:27;;;;;;;26.10;18.50;;;14.40;62.00;;;;;;5039833;28;20076;-71
2022/03/16 01:00:53;;;;;;;22.17;17.73;;;14.40;62.00;;;;;;5039829;28;20056;-70
2022/03/16 01:03:18;;;;;;;23.63;17.80;;;14.40;62.00;;;;;;5067836;28;20045;-70
2022/03/16 01:05:45;;;;;;;26.50;18.02;;;14.40;62.00;;;;;;5056560;28;20072;-70
2022/03/16 01:08:11;;;;;;;21.38;17.10;;;14.40;62.00;;;;;;5039848;28;20041;-71
2022/03/16 01:10:38;;;;;;;25.70;17.35;;;14.40;61.90;;;;;;5057167;28;20048;-71
2022/03/16 01:13:04;;;;;;;25.42;17.65;;;14.40;61.90;;;;;;5057929;28;20041;-71
2022/03/16 01:15:30;;;;;;;22.60;17.92;;;14.40;61.90;;;;;;5056950;28;20051;-71
2022/03/16 01:17:55;;;;;;;23.60;17.55;;;14.40;61.80;;;;;;5057098;28;20048;-69
2022/03/16 01:20:21;;;;;;;25.60;18.75;;;14.40;61.80;;;;;;5057156;28;20041;-72
2022/03/16 01:22:47;;;;;;;25.10;18.42;;;14.30;61.70;;;;;;5056909;28;20057;-72
2022/03/16 01:25:13;;;;;;;24.67;19.45;;;14.30;61.70;;;;;;5057112;28;20136;-71
2022/03/16 01:27:38;;;;;;;25.33;18.13;;;14.30;61.80;;;;;;5057168;28;20052;-70
2022/03/16 01:30:05;;;;;;;24.80;18.30;;;14.30;61.80;;;;;;5057161;28;20052;-70
2022/03/16 01:32:30;;;;;;;24.92;18.23;;;14.30;61.80;;;;;;5039913;28;20049;-71
2022/03/16 01:34:56;;;;;;;24.05;17.60;;;14.30;61.80;;;;;;5039688;28;20122;-72
2022/03/16 01:37:22;;;;;;;24.70;17.88;;;14.30;61.80;;;;;;5039673;28;20064;-70
2022/03/16 01:39:48;;;;;;;23.48;17.50;;;14.20;61.80;;;;;;5056842;28;20125;-70
2022/03/16 01:42:14;;;;;;;25.10;17.88;;;14.20;61.70;;;;;;5056045;28;20049;-72
2022/03/16 01:44:48;;;;;;;21.42;18.05;;;14.30;61.80;;;;;;5039483;28;20361;-71
2022/03/16 01:47:18;;;;;;;26.35;18.20;;;14.20;61.60;;;;;;5039174;28;20182;-70
2022/03/16 01:49:45;;;;;;;23.88;17.58;;;14.20;61.70;;;;;;5056486;28;20460;-71
2022/03/16 01:52:14;;;;;;;23.02;17.77;;;14.20;61.80;;;;;;5056752;28;20049;-71
2022/03/16 01:54:40;;;;;;;24.15;17.67;;;14.10;61.70;;;;;;5038973;28;20049;-72
2022/03/16 01:57:08;;;;;;;21.67;16.85;;;14.20;61.80;;;;;;5057088;28;20198;-70
2022/03/16 01:59:33;;;;;;;22.38;17.60;;;14.20;61.70;;;;;;5056155;28;20132;-70
2022/03/16 02:01:59;;;;;;;22.73;17.77;;;14.10;61.60;;;;;;5055995;28;20176;-69
2022/03/16 02:04:25;;;;;;;21.58;16.60;;;14.20;61.70;;;;;;5055923;28;20041;-71
2022/03/16 02:06:51;;;;;;;23.70;17.05;;;14.20;61.60;;;;;;5038695;28;20040;-70
2022/03/16 02:09:16;;;;;;;25.35;17.50;;;14.20;61.60;;;;;;5038604;28;20080;-71
2022/03/16 02:11:42;;;;;;;24.65;16.77;;;14.20;61.60;;;;;;5038603;28;20056;-71
2022/03/16 02:14:08;;;;;;;22.98;17.15;;;14.10;61.60;;;;;;5038421;28;20424;-71
2022/03/16 02:16:34;;;;;;;21.55;16.38;;;14.10;61.50;;;;;;5037638;28;20111;-70
2022/03/16 02:19:00;;;;;;;20.88;16.52;;;14.10;61.50;;;;;;5055749;28;20052;-69
2022/03/16 02:21:28;;;;;;;24.58;17.98;;;14.10;61.70;;;;;;5056234;28;20436;-70
2022/03/16 02:23:53;;;;;;;22.05;16.55;;;14.10;61.70;;;;;;5055939;28;20364;-70
2022/03/16 02:26:25;;;;;;;21.17;15.60;;;14.10;61.60;;;;;;5055603;28;20118;-70
2022/03/16 02:28:52;;;;;;;21.70;16.63;;;14.10;61.50;;;;;;5056038;28;20376;-71
2022/03/16 02:31:18;;;;;;;24.83;17.08;;;14.10;61.60;;;;;;5056450;28;20053;-71
2022/03/16 02:33:44;;;;;;;22.67;16.55;;;14.10;61.50;;;;;;5075809;28;20040;-70
2022/03/16 02:36:10;;;;;;;21.23;16.75;;;14.10;61.40;;;;;;5075710;28;20048;-72
2022/03/16 02:38:36;;;;;;;22.98;17.27;;;14.00;61.40;;;;;;5057971;28;20501;-70
2022/03/16 02:41:03;;;;;;;23.45;16.42;;;14.10;61.40;;;;;;5075208;28;20068;-72
2022/03/16 02:43:28;;;;;;;22.02;16.20;;;14.10;61.30;;;;;;5075315;28;20371;-72
2022/03/16 02:45:54;;;;;;;20.90;15.82;;;14.00;61.30;;;;;;5075447;28;20048;-70
2022/03/16 02:48:21;;;;;;;22.30;16.70;;;14.00;61.20;;;;;;5075309;28;20048;-70
2022/03/16 02:50:47;;;;;;;21.38;16.27;;;14.00;61.20;;;;;;5058111;28;20044;-71
2022/03/16 02:53:15;;;;;;;20.27;16.05;;;14.00;61.20;;;;;;5075502;28;20044;-72
2022/03/16 02:55:42;;;;;;;23.30;16.58;;;14.00;61.20;;;;;;5075200;28;20052;-69
2022/03/16 02:58:08;;;;;;;25.75;17.83;;;14.00;61.20;;;;;;5075533;28;20058;-71
2022/03/16 03:00:34;;;;;;;24.23;16.48;;;13.90;61.20;;;;;;5075063;28;20040;-71
2022/03/16 03:03:00;;;;;;;23.15;16.83;;;13.90;61.20;;;;;;5074351;28;20144;-71
2022/03/16 03:05:26;;;;;;;23.05;17.48;;;13.90;61.20;;;;;;5055911;28;20511;-70
2022/03/16 03:07:51;;;;;;;24.77;17.95;;;13.90;61.10;;;;;;5055217;28;20429;-69
2022/03/16 03:10:17;;;;;;;21.58;16.63;;;13.90;61.10;;;;;;5054919;28;20055;-70
2022/03/16 03:12:43;;;;;;;23.90;17.55;;;13.90;61.00;;;;;;5054955;28;20048;-71
2022/03/16 03:15:13;;;;;;;26.38;17.60;;;13.90;61.00;;;;;;5055020;28;20367;-70
2022/03/16 03:17:41;;;;;;;23.23;17.42;;;13.90;61.00;;;;;;5055043;28;20458;-70
2022/03/16 03:20:07;;;;;;;24.05;17.25;;;13.90;61.00;;;;;;5037525;28;20049;-70
2022/03/16 03:22:33;;;;;;;22.27;16.27;;;13.90;61.00;;;;;;5037291;28;20084;-70
2022/03/16 03:24:59;;;;;;;24.05;18.00;;;13.90;61.00;;;;;;5054662;28;20077;-71
2022/03/16 03:27:25;;;;;;;21.70;17.17;;;13.90;60.90;;;;;;5055806;28;20048;-69
2022/03/16 03:29:51;;;;;;;21.88;16.80;;;13.80;60.70;;;;;;5061729;28;20202;-69
2022/03/16 03:32:17;;;;;;;24.83;18.13;;;13.80;61.00;;;;;;5069872;28;20040;-70
2022/03/16 03:34:46;;;;;;;23.50;17.67;;;13.80;61.00;;;;;;5082365;28;20385;-72
2022/03/16 03:37:15;;;;;;;23.48;17.75;;;13.80;61.10;;;;;;5081482;28;20049;-70
2022/03/16 03:39:41;;;;;;;22.25;16.80;;;13.80;61.10;;;;;;5081366;28;20049;-70
2022/03/16 03:42:07;;;;;;;21.90;17.27;;;13.80;61.10;;;;;;5063383;28;20418;-70
2022/03/16 03:44:37;;;;;;;24.45;18.10;;;13.80;61.00;;;;;;5063791;28;20087;-71
2022/03/16 03:47:09;;;;;;;21.65;16.88;;;13.80;61.10;;;;;;5063893;28;20064;-71
2022/03/16 03:49:36;;;;;;;23.38;17.52;;;13.80;61.10;;;;;;5081289;28;20045;-71
2022/03/16 03:52:02;;;;;;;22.75;16.65;;;13.80;61.00;;;;;;5063609;28;20052;-70
2022/03/16 03:54:28;;;;;;;22.20;18.08;;;13.80;61.00;;;;;;5081156;28;20451;-70
2022/03/16 03:56:54;;;;;;;22.92;17.58;;;13.80;60.90;;;;;;5081501;28;20355;-71
2022/03/16 03:59:20;;;;;;;23.42;17.20;;;13.80;60.80;;;;;;5078402;28;20059;-70
2022/03/16 04:01:46;;;;;;;22.85;17.65;;;13.80;60.80;;;;;;5056540;28;20119;-72
2022/03/16 04:04:12;;;;;;;21.65;17.92;;;13.80;60.80;;;;;;5061413;28;20041;-71
2022/03/16 04:06:38;;;;;;;23.35;17.73;;;13.80;60.80;;;;;;5061527;28;20515;-72
2022/03/16 04:09:04;;;;;;;23.95;18.15;;;13.80;60.80;;;;;;5061192;28;20124;-70
2022/03/16 04:11:31;;;;;;;24.45;18.05;;;13.80;60.80;;;;;;5061480;28;20124;-69
2022/03/16 04:13:57;;;;;;;25.27;17.30;;;13.80;60.70;;;;;;5061323;28;20052;-72
2022/03/16 04:16:22;;;;;;;21.50;17.35;;;13.70;60.70;;;;;;5061412;28;20041;-71
2022/03/16 04:18:48;;;;;;;24.38;18.17;;;13.70;60.70;;;;;;5061373;28;20111;-70
2022/03/16 04:21:14;;;;;;;22.50;16.95;;;13.70;60.70;;;;;;5061280;28;20060;-69
2022/03/16 04:23:39;;;;;;;22.80;17.20;;;13.70;60.70;;;;;;5044174;28;20041;-70
2022/03/16 04:26:05;;;;;;;24.52;17.40;;;13.70;60.70;;;;;;5044054;28;20138;-70
2022/03/16 04:28:31;;;;;;;26.13;18.63;;;13.70;60.70;;;;;;5061043;28;20045;-71
2022/03/16 04:30:56;;;;;;;25.73;17.98;;;13.70;60.70;;;;;;5061783;28;20343;-70
2022/03/16 04:33:22;;;;;;;26.42;18.27;;;13.70;61.30;;;;;;5060807;28;20049;-70
2022/03/16 04:35:48;;;;;;;23.70;18.30;;;13.70;60.70;;;;;;5060448;28;20059;-69
2022/03/16 04:38:13;;;;;;;23.05;17.45;;;13.60;60.60;;;;;;5060818;28;20051;-70
2022/03/16 04:40:39;;;;;;;23.63;17.58;;;13.60;60.70;;;;;;5057050;28;20088;-71
2022/03/16 04:43:05;;;;;;;23.67;17.48;;;13.60;60.70;;;;;;5057801;28;20041;-71
2022/03/16 04:45:31;;;;;;;25.92;18.20;;;13.60;60.70;;;;;;5052156;28;20056;-71
2022/03/16 04:47:56;;;;;;;24.08;18.15;;;13.60;60.70;;;;;;5057017;28;20055;-71
2022/03/16 04:50:23;;;;;;;22.92;17.80;;;13.60;60.70;;;;;;5059560;28;20345;-71
2022/03/16 04:52:49;;;;;;;23.90;18.33;;;13.50;60.60;;;;;;5077616;28;20106;-70
2022/03/16 04:55:16;;;;;;;23.98;18.52;;;13.50;60.70;;;;;;5077535;28;20044;-71
2022/03/16 04:57:42;;;;;;;23.38;17.83;;;13.40;60.70;;;;;;5077723;28;20040;-71
2022/03/16 05:00:09;;;;;;;24.40;17.75;;;13.40;60.90;;;;;;5077905;28;20071;-72
2022/03/16 05:02:36;;;;;;;25.30;18.48;;;13.40;61.00;;;;;;5055368;28;20052;-71
2022/03/16 05:05:03;;;;;;;20.90;16.33;;;13.40;61.30;;;;;;5057178;28;20049;-76
2022/03/16 05:07:28;;;;;;;29.13;19.90;;;13.40;61.50;;;;;;5023427;28;20049;-78
2022/03/16 05:09:54;;;;;;;28.85;19.92;;;13.50;61.10;;;;;;5057222;28;20056;-76
2022/03/16 05:12:20;;;;;;;25.08;19.48;;;13.50;60.40;;;;;;5039853;28;20047;-75
2022/03/16 05:14:46;;;;;;;28.08;20.30;;;13.50;59.90;;;;;;5059179;28;20040;-73
2022/03/16 05:17:11;;;;;;;24.63;19.65;;;13.50;59.70;;;;;;5071157;28;20363;-77
2022/03/16 05:19:37;;;;;;;26.10;20.00;;;13.50;59.50;;;;;;5074970;28;20122;-76
2022/03/16 05:22:03;;;;;;;27.60;20.48;;;13.50;59.30;;;;;;5077045;28;20040;-74
2022/03/16 05:24:28;;;;;;;35.65;21.33;;;13.50;59.10;;;;;;5073817;28;20045;-76
2022/03/16 05:26:54;;;;;;;29.90;21.65;;;13.60;59.20;;;;;;5076969;28;20131;-74
2022/03/16 05:29:20;;;;;;;27.10;21.88;;;13.60;59.10;;;;;;5074682;28;20102;-75
2022/03/16 05:31:46;;;;;;;26.65;21.13;;;13.50;58.90;;;;;;5057877;28;20040;-73
2022/03/16 05:34:11;;;;;;;27.77;20.90;;;13.50;59.20;;;;;;5057556;28;20063;-71
2022/03/16 05:36:37;;;;;;;29.33;21.45;;;13.40;59.50;;;;;;5075911;28;20044;-73
2022/03/16 05:39:06;;;;;;;25.75;19.95;;;13.40;61.40;;;;;;5076083;28;20040;-71
2022/03/16 05:41:32;;;;;;;24.30;19.27;;;13.40;61.60;;;;;;5077364;28;20056;-71
2022/03/16 05:43:58;;;;;;;31.60;20.73;;;13.50;61.90;;;;;;5059079;28;20475;-70
2022/03/16 05:46:23;;;;;;;24.50;18.80;;;13.70;64.00;;;;;;5062088;28;20049;-72
2022/03/16 05:48:49;;;;;;;31.50;19.52;;;13.90;62.90;;;;;;5056482;28;20501;-73
2022/03/16 05:51:15;;;;;;;23.98;17.08;;;14.10;61.50;;;;;;5055961;28;20059;-71
2022/03/16 05:53:40;;;;;;;22.73;14.93;;;14.20;63.40;;;;;;5056801;28;20437;-72
2022/03/16 05:56:07;;;;;;;22.83;15.50;;;14.50;63.50;;;;;;5056539;28;20059;-74
2022/03/16 05:58:32;;;;;;;24.45;13.45;;;14.80;63.60;;;;;;5022662;28;20056;-72
2022/03/16 06:00:58;;;;;;;26.48;14.05;;;15.00;63.30;;;;;;5057721;28;20041;-72
2022/03/16 06:03:24;;;;;;;21.25;12.65;;;15.20;63.40;;;;;;5059796;28;20522;-74
2022/03/16 06:05:49;;;;;;;20.50;11.93;;;15.40;63.30;;;;;;5056068;28;20049;-73
2022/03/16 06:08:15;;;;;;;23.83;12.32;;;15.50;63.50;;;;;;5040410;28;20045;-75
2022/03/16 06:10:41;;;;;;;18.95;11.27;;;15.60;63.50;;;;;;5070639;28;20045;-72
2022/03/16 06:13:07;;;;;;;21.02;10.43;;;15.70;63.50;;;;;;5056431;28;20052;-75
2022/03/16 06:15:44;;;;;;;19.75;12.35;;;15.70;63.80;;;;;;5083268;28;20378;-75
2022/03/16 06:18:11;;;;;;;17.38;11.13;;;15.70;63.40;;;;;;5080308;28;20052;-75
2022/03/16 06:20:39;;;;;;;17.85;10.65;;;15.70;63.70;;;;;;5058080;28;20066;-76
2022/03/16 06:23:05;;;;;;;16.20;10.45;;;15.70;64.00;;;;;;5058388;28;20452;-75
2022/03/16 06:25:33;;;;;;;24.83;10.10;;;15.70;64.20;;;;;;5057882;28;20052;-75
2022/03/16 06:27:58;;;;;;;19.08;9.90;;;15.70;64.40;;;;;;5050119;28;20081;-73
2022/03/16 06:30:25;;;;;;;14.50;9.20;;;15.70;64.50;;;;;;5053630;28;20495;-74
2022/03/16 06:32:51;;;;;;;16.05;10.15;;;15.60;64.60;;;;;;5055421;28;20056;-74
2022/03/16 06:35:17;;;;;;;14.35;10.20;;;15.60;64.50;;;;;;5055769;28;20052;-70
2022/03/16 06:37:43;;;;;;;14.40;10.57;;;15.60;64.50;;;;;;5052660;28;20040;-74
2022/03/16 06:40:10;;;;;;;17.75;9.63;;;15.60;64.50;;;;;;5055529;28;20041;-75
2022/03/16 06:42:51;;;;;;;12.45;8.70;;;15.60;64.60;;;;;;5055883;28;20517;-73
2022/03/16 06:45:18;;;;;;;13.15;9.10;;;15.60;64.50;;;;;;5055909;28;20064;-73
2022/03/16 06:47:43;;;;;;;17.42;9.10;;;15.60;63.90;;;;;;5004398;28;20389;-76
2022/03/16 06:50:10;;;;;;;21.08;9.35;;;15.60;64.50;;;;;;5037189;28;20040;-73
2022/03/16 06:52:35;;;;;;;23.08;9.05;;;15.60;64.70;;;;;;5059379;28;20053;-77
2022/03/16 06:55:01;;;;;;;20.65;9.35;;;15.70;64.50;;;;;;5072280;28;20044;-72
2022/03/16 06:57:27;;;;;;;21.65;8.95;;;15.80;64.30;;;;;;5075220;28;20127;-72
2022/03/16 06:59:52;;;;;;;20.48;8.45;;;15.80;64.20;;;;;;5075211;28;20359;-78
2022/03/16 07:02:18;;;;;;;20.90;8.32;;;15.90;64.30;;;;;;5057505;28;20056;-76
2022/03/16 07:04:44;;;;;;;21.40;8.45;;;16.00;64.10;;;;;;5074625;28;20124;-75
2022/03/16 07:07:09;;;;;;;19.35;7.65;;;16.10;63.60;;;;;;5072320;28;20047;-74
2022/03/16 07:09:50;;;;;;;20.08;7.97;;;16.10;63.30;;;;;;5074907;28;20044;-78
2022/03/16 07:12:15;;;;;;;20.20;8.85;;;16.30;63.40;;;;;;5057458;28;20052;-77
2022/03/16 07:14:41;;;;;;;20.75;8.85;;;16.30;62.90;;;;;;5057152;28;20041;-78
2022/03/16 07:17:07;;;;;;;12.40;8.05;;;16.30;62.40;;;;;;5075038;28;20037;-76
2022/03/16 07:19:32;;;;;;;14.55;8.07;;;16.40;62.20;;;;;;5075409;28;20140;-80
2022/03/16 07:21:58;;;;;;;16.80;8.23;;;16.30;61.90;;;;;;5057359;28;20048;-76
2022/03/16 07:24:25;;;;;;;18.98;8.18;;;16.30;61.90;;;;;;5074718;28;20040;-78
2022/03/16 07:26:55;;;;;;;13.52;8.02;;;16.20;61.60;;;;;;5074694;28;20040;-80
2022/03/16 07:29:22;;;;;;;13.88;7.60;;;16.20;61.60;;;;;;5057946;28;20049;-76
2022/03/16 07:31:47;;;;;;;11.18;7.15;;;16.20;61.50;;;;;;5075005;28;20109;-76
2022/03/16 07:34:14;;;;;;;13.57;7.97;;;16.20;61.60;;;;;;5058016;28;20056;-76
2022/03/16 07:36:40;;;;;;;12.32;7.45;;;16.10;61.50;;;;;;5075172;28;20036;-76
2022/03/16 07:39:05;;;;;;;13.95;8.13;;;16.10;61.50;;;;;;5074969;28;20428;-76
2022/03/16 07:41:31;;;;;;;14.10;7.38;;;16.00;61.50;;;;;;5051661;28;20061;-75
2022/03/16 07:43:57;;;;;;;11.25;9.55;;;16.00;61.60;;;;;;5054660;28;20148;-78
2022/03/16 07:46:23;;;;;;;14.57;9.45;;;16.00;61.10;;;;;;5054661;28;20123;-78
2022/03/16 07:48:48;;;;;;;18.88;9.13;;;16.00;61.10;;;;;;5040438;28;20080;-80
2022/03/16 07:51:14;;;;;;;14.43;8.70;;;15.90;61.10;;;;;;5036870;28;20037;-78
2022/03/16 07:53:40;;;;;;;15.98;8.98;;;16.00;61.30;;;;;;5036387;28;20367;-70
2022/03/16 07:56:06;;;;;;;13.10;7.88;;;16.10;61.40;;;;;;5036968;28;20053;-76
2022/03/16 07:58:31;;;;;;;12.20;8.10;;;16.10;61.40;;;;;;5054552;28;20055;-78
2022/03/16 08:00:57;;;;;;;15.55;9.32;;;16.20;61.40;;;;;;5036832;28;20044;-80
2022/03/16 08:03:27;;;;;;;11.70;7.63;;;16.20;61.30;;;;;;5061234;28;20454;-78
2022/03/16 08:05:59;;;;;;;14.32;7.65;;;16.40;61.20;;;;;;5043359;28;20045;-76
2022/03/16 08:08:25;;;;;;;12.10;7.47;;;16.50;61.10;;;;;;5083273;28;20036;-77
2022/03/16 08:10:50;;;;;;;13.15;7.50;;;16.60;60.80;;;;;;5075783;28;20459;-77
2022/03/16 08:13:16;;;;;;;11.13;7.13;;;16.60;60.80;;;;;;5058986;28;20114;-75
2022/03/16 08:15:42;;;;;;;11.90;7.35;;;16.70;60.60;;;;;;5074944;28;20048;-78
2022/03/16 08:18:08;;;;;;;14.20;7.68;;;16.70;60.60;;;;;;5074234;28;20119;-75
2022/03/16 08:20:33;;;;;;;14.15;8.38;;;16.80;60.90;;;;;;5060614;28;20064;-77
2022/03/16 08:22:59;;;;;;;12.18;8.48;;;16.80;60.60;;;;;;5077829;28;20047;-76
2022/03/16 08:25:25;;;;;;;10.60;7.63;;;16.80;60.50;;;;;;5060276;28;20051;-75
2022/03/16 08:27:50;;;;;;;9.13;6.90;;;16.80;60.40;;;;;;5077630;28;20036;-76
2022/03/16 08:30:16;;;;;;;8.60;6.72;;;16.80;60.30;;;;;;5077907;28;20052;-77
2022/03/16 08:32:42;;;;;;;11.73;7.45;;;16.80;60.90;;;;;;5060577;28;20499;-76
2022/03/16 08:35:09;;;;;;;11.75;7.00;;;16.80;60.30;;;;;;5077762;28;20044;-75
2022/03/16 08:37:36;;;;;;;9.98;6.85;;;16.80;60.40;;;;;;5078106;28;20422;-74
2022/03/16 08:40:03;;;;;;;12.23;6.45;;;16.80;60.40;;;;;;5059931;28;20114;-75
2022/03/16 08:42:29;;;;;;;9.18;6.35;;;16.80;60.40;;;;;;5077506;28;20052;-77
2022/03/16 08:44:55;;;;;;;8.75;6.68;;;16.80;60.50;;;;;;5060088;28;20045;-81
2022/03/16 08:47:21;;;;;;;10.18;5.97;;;16.70;60.40;;;;;;5077822;28;20433;-80
2022/03/16 08:49:50;;;;;;;13.68;7.90;;;16.80;60.40;;;;;;5060189;28;20139;-80
2022/03/16 08:52:15;;;;;;;14.05;7.45;;;16.70;60.00;;;;;;5077548;28;20439;-79
2022/03/16 08:54:41;;;;;;;10.85;7.32;;;16.70;59.70;;;;;;5077442;28;20083;-81
2022/03/16 08:57:10;;;;;;;11.60;7.30;;;16.70;59.60;;;;;;5077068;28;20040;-78
2022/03/16 08:59:37;;;;;;;14.40;7.68;;;16.70;59.50;;;;;;5062494;28;20071;-77
2022/03/16 09:02:03;;;;;;;8.13;6.88;;;16.70;59.40;;;;;;5079268;28;20044;-79
2022/03/16 09:04:29;;;;;;;14.02;7.00;;;16.70;59.30;;;;;;5074916;28;20044;-79
2022/03/16 09:06:55;;;;;;;11.48;5.80;;;16.60;59.40;;;;;;5077917;28;20044;-78
2022/03/16 09:09:21;;;;;;;7.03;5.28;;;16.60;59.40;;;;;;5094196;28;20123;-80
2022/03/16 09:11:47;;;;;;;8.18;5.72;;;16.70;59.50;;;;;;5068122;28;20052;-80
2022/03/16 09:14:13;;;;;;;9.85;5.68;;;16.70;59.60;;;;;;5077288;28;20464;-77
2022/03/16 09:16:39;;;;;;;7.10;5.10;;;16.70;59.60;;;;;;5075498;28;20040;-78
2022/03/16 09:19:04;;;;;;;7.13;5.20;;;16.70;59.60;;;;;;5076455;28;20061;-79
2022/03/16 09:21:30;;;;;;;8.00;4.82;;;16.70;59.70;;;;;;5059268;28;20360;-79
2022/03/16 09:23:56;;;;;;;11.02;6.05;;;16.70;59.70;;;;;;5088086;28;20363;-79
2022/03/16 09:26:22;;;;;;;10.68;6.75;;;16.70;59.20;;;;;;5079156;28;20040;-81
2022/03/16 09:28:49;;;;;;;9.13;7.07;;;16.70;58.30;;;;;;5097175;28;20055;-80
2022/03/16 09:31:15;;;;;;;10.45;7.57;;;16.70;57.90;;;;;;5079319;28;20036;-81
2022/03/16 09:33:41;;;;;;;12.85;7.60;;;16.70;57.40;;;;;;5079107;28;20055;-79
2022/03/16 09:36:08;;;;;;;10.23;7.30;;;16.80;56.90;;;;;;5096880;28;20032;-79
2022/03/16 09:38:37;;;;;;;11.02;6.95;;;16.80;56.50;;;;;;5095947;28;20452;-81
2022/03/16 09:41:04;;;;;;;11.05;6.60;;;16.80;56.40;;;;;;5097165;28;20055;-80
2022/03/16 09:43:35;;;;;;;11.20;6.57;;;16.80;56.60;;;;;;5078952;28;20051;-78
2022/03/16 09:46:06;;;;;;;9.02;5.78;;;16.70;56.70;;;;;;5096964;28;20048;-78
2022/03/16 09:48:33;;;;;;;8.82;6.10;;;16.70;57.00;;;;;;5079235;28;20055;-80
2022/03/16 09:50:58;;;;;;;8.43;5.28;;;16.80;57.30;;;;;;5079360;28;20127;-78
2022/03/16 09:53:28;;;;;;;10.30;5.65;;;16.80;57.50;;;;;;5096425;28;20140;-80
2022/03/16 09:55:55;;;;;;;7.57;5.10;;;16.80;57.70;;;;;;5079266;28;20431;-78
2022/03/16 09:58:21;;;;;;;8.90;4.82;;;16.80;57.80;;;;;;5096154;28;20048;-80
2022/03/16 10:00:48;;;;;;;6.35;4.35;;;16.80;58.00;;;;;;5061440;28;20041;-78
2022/03/16 10:03:15;;;;;;;8.90;4.55;;;16.80;58.10;;;;;;5056158;28;20404;-81
2022/03/16 10:05:44;;;;;;;5.90;4.10;;;16.80;58.20;;;;;;5059688;28;20082;-78
2022/03/16 10:08:10;;;;;;;6.82;3.85;;;16.80;58.40;;;;;;5089971;28;20084;-79
2022/03/16 10:13:21;;;;;;;7.07;3.85;;;16.80;58.70;;;;;;5076279;28;20060;-79
2022/03/16 10:15:48;;;;;;;6.75;3.50;;;16.80;58.90;;;;;;5058194;28;20055;-79
2022/03/16 10:18:16;;;;;;;4.28;3.33;;;16.80;58.90;;;;;;5075686;28;20106;-79
2022/03/16 10:20:43;;;;;;;6.72;3.28;;;16.80;58.90;;;;;;5058051;28;20047;-78
2022/03/16 10:23:36;;;;;;;6.82;3.50;;;16.80;59.00;;;;;;5062420;28;20525;-78
2022/03/16 10:26:03;;;;;;;5.95;3.38;;;16.70;59.00;;;;;;5073984;28;20060;-79
2022/03/16 10:28:31;;;;;;;5.88;3.10;;;16.70;59.10;;;;;;5096198;28;20059;-82
2022/03/16 10:31:08;;;;;;;5.80;3.30;;;16.70;59.20;;;;;;5078166;28;20455;-80
2022/03/16 10:33:47;;;;;;;7.07;3.50;;;16.70;59.30;;;;;;5096055;28;20131;-78
2022/03/16 10:36:14;;;;;;;5.63;3.20;;;16.70;59.40;;;;;;5077650;28;20043;-80
2022/03/16 10:38:52;;;;;;;5.70;2.97;;;16.70;59.50;;;;;;5077208;28;20143;-80
2022/03/16 10:47:17;;;;;;;6.45;3.03;;;16.50;60.00;;;;;;5078088;28;20462;-83
2022/03/16 10:50:00;;;;;;;7.60;3.20;;;16.50;60.00;;;;;;5061083;28;20051;-79
2022/03/16 10:52:31;;;;;;;5.75;3.03;;;16.50;60.00;;;;;;5094864;28;20032;-79
2022/03/16 10:54:58;;;;;;;3.95;2.75;;;16.50;60.00;;;;;;5095663;28;20058;-83
2022/03/16 10:57:26;;;;;;;4.13;2.78;;;16.50;60.10;;;;;;5095469;28;20048;-79
2022/03/16 10:59:55;;;;;;;3.42;2.28;;;16.50;60.20;;;;;;5055574;28;20054;-79
2022/03/16 11:02:24;;;;;;;5.55;2.90;;;16.50;60.20;;;;;;5075149;28;20083;-79
2022/03/16 11:04:52;;;;;;;3.85;2.90;;;16.50;60.20;;;;;;5072073;28;20052;-79
2022/03/16 11:07:19;;;;;;;3.20;2.50;;;16.50;60.20;;;;;;5080076;28;20066;-78
2022/03/16 11:09:46;;;;;;;3.80;2.53;;;16.50;60.30;;;;;;5095349;28;20070;-79
2022/03/16 11:14:58;;;;;;;4.63;2.97;;;16.40;60.20;;;;;;5057492;28;20056;-79
2022/03/16 11:17:25;;;;;;;4.75;3.15;;;16.40;60.20;;;;;;5058145;28;20087;-80
2022/03/16 11:19:55;;;;;;;4.10;2.55;;;16.40;60.20;;;;;;5057632;28;20052;-79
2022/03/16 11:22:25;;;;;;;3.70;2.42;;;16.40;60.20;;;;;;5075276;28;20123;-78
2022/03/16 11:25:19;;;;;;;4.35;2.33;;;16.40;60.20;;;;;;5092618;28;20124;-77
2022/03/16 11:27:52;;;;;;;5.03;2.80;;;16.40;60.20;;;;;;5095207;28;20040;-78
2022/03/16 11:30:29;;;;;;;3.42;2.55;;;16.40;60.30;;;;;;5077037;28;20040;-81
2022/03/16 11:33:00;;;;;;;4.57;2.72;;;16.30;60.30;;;;;;5095707;28;20094;-79
2022/03/16 11:35:37;;;;;;;4.90;2.78;;;16.30;60.40;;;;;;5093837;28;20132;-82
2022/03/16 11:38:09;;;;;;;4.68;2.60;;;16.30;60.40;;;;;;5060821;28;20051;-76
2022/03/16 11:40:37;;;;;;;4.03;2.35;;;16.30;60.50;;;;;;5060174;28;20048;-80
2022/03/16 11:43:08;;;;;;;5.28;3.40;;;16.30;60.60;;;;;;5094420;28;20048;-79
2022/03/16 11:45:36;;;;;;;6.82;5.28;;;16.40;60.40;;;;;;5076644;28;20436;-78
2022/03/16 11:48:37;;;;;;;9.57;6.05;;;16.40;59.80;;;;;;5094920;28;20059;-81
2022/03/16 11:51:16;;;;;;;10.55;6.00;;;16.40;59.20;;;;;;5092440;28;20060;-76
2022/03/16 11:53:50;;;;;;;6.13;4.63;;;16.40;57.50;;;;;;5081141;28;20055;-79
2022/03/16 11:56:21;;;;;;;7.95;5.53;;;16.30;57.10;;;;;;5081448;28;20048;-79
2022/03/16 11:58:54;;;;;;;6.95;5.15;;;16.30;57.20;;;;;;5098954;28;20051;-80
2022/03/16 12:01:40;;;;;;;7.25;5.07;;;16.30;57.20;;;;;;5063610;28;20070;-80
2022/03/16 12:04:12;;;;;;;7.80;4.10;;;16.30;57.10;;;;;;5078835;28;20391;-79
2022/03/16 12:07:01;;;;;;;5.55;4.32;;;16.30;57.20;;;;;;5056405;28;20054;-80
2022/03/16 12:09:39;;;;;;;6.85;4.15;;;16.20;57.20;;;;;;5063818;28;20117;-80
2022/03/16 12:15:11;;;;;;;5.43;4.00;;;16.20;57.50;;;;;;5063684;28;20122;-78
2022/03/16 12:17:56;;;;;;;6.18;3.80;;;16.20;57.60;;;;;;5078087;28;20044;-78
2022/03/16 12:20:27;;;;;;;5.35;3.58;;;16.20;57.80;;;;;;5060744;28;20044;-79
2022/03/16 12:23:09;;;;;;;6.93;4.05;;;16.20;57.80;;;;;;5079282;28;20459;-78
2022/03/16 12:25:42;;;;;;;5.88;3.80;;;16.20;57.90;;;;;;5080308;28;20048;-82
2022/03/16 12:31:07;;;;;;;4.93;3.05;;;16.10;58.00;;;;;;5098167;28;20450;-81
2022/03/16 12:33:39;;;;;;;5.88;3.72;;;16.10;58.00;;;;;;5081167;28;20048;-80
2022/03/16 12:36:13;;;;;;;4.15;3.03;;;16.10;58.10;;;;;;5080495;28;20098;-79
2022/03/16 12:38:50;;;;;;;4.05;2.72;;;16.10;58.10;;;;;;5098385;28;20343;-77
2022/03/16 12:44:10;;;;;;;4.25;2.90;;;16.10;58.30;;;;;;5098397;28;20101;-81
2022/03/16 12:47:02;;;;;;;3.42;2.72;;;16.10;58.90;;;;;;5078114;28;20119;-79
2022/03/16 12:49:28;;;;;;;3.88;3.00;;;16.10;58.20;;;;;;5098305;28;20355;-80
2022/03/16 12:52:00;;;;;;;2.70;2.30;;;16.00;58.40;;;;;;5080224;28;20052;-79
2022/03/16 12:54:30;;;;;;;3.63;3.10;;;16.00;58.40;;;;;;5097625;28;20127;-80
2022/03/16 12:57:11;;;;;;;3.97;2.60;;;16.00;58.40;;;;;;5097587;28;20045;-78